Time;durP1;ratioP1;P1;durP2;ratioP2;P2;SDS_P1;SDS_P2;PMS_P1;PMS_P2;Temp;Humidity;BMP_temperature;BMP_pressure;BME280_temperature;BME280_humidity;BME280_pressure;Samples;Min_cycle;Max_cycle;Signal;HPM_P1;HPM_P2
2021/03/20 00:01:51;;;;;;;8.20;1.45;;;2.00;68.30;;;;;;5090792;28;20391;-49
2021/03/20 00:04:17;;;;;;;4.32;1.20;;;2.00;68.50;;;;;;5090947;28;20376;-49
2021/03/20 00:06:45;;;;;;;5.90;1.60;;;2.00;69.40;;;;;;5090474;28;20384;-49
2021/03/20 00:09:13;;;;;;;5.50;1.70;;;2.00;69.00;;;;;;5056614;28;20392;-49
2021/03/20 00:11:41;;;;;;;6.45;1.70;;;2.00;69.50;;;;;;5087659;28;20387;-50
2021/03/20 00:14:07;;;;;;;5.40;1.55;;;2.00;69.50;;;;;;5065176;28;20913;-48
2021/03/20 00:16:33;;;;;;;4.90;1.60;;;2.00;69.90;;;;;;5071380;28;20411;-49
2021/03/20 00:18:59;;;;;;;5.70;1.42;;;2.10;70.20;;;;;;5090531;28;20384;-49
2021/03/20 00:21:25;;;;;;;5.30;1.58;;;2.10;70.30;;;;;;5089360;28;20392;-49
2021/03/20 00:23:52;;;;;;;7.95;1.42;;;2.10;69.80;;;;;;5090294;28;20384;-48
2021/03/20 00:26:18;;;;;;;7.20;1.87;;;2.10;69.20;;;;;;5090425;28;20412;-51
2021/03/20 00:28:44;;;;;;;4.80;1.55;;;2.10;69.50;;;;;;5089260;28;20398;-48
2021/03/20 00:31:11;;;;;;;9.13;1.80;;;2.20;69.50;;;;;;5090238;28;20400;-48
2021/03/20 00:33:38;;;;;;;4.25;1.48;;;2.10;69.50;;;;;;5088013;28;20903;-49
2021/03/20 00:36:05;;;;;;;11.27;1.90;;;2.10;69.30;;;;;;5088505;28;20388;-50
2021/03/20 00:38:31;;;;;;;7.45;1.52;;;2.20;69.70;;;;;;5089848;28;20742;-50
2021/03/20 00:40:57;;;;;;;7.45;1.73;;;2.10;69.80;;;;;;5089643;28;20419;-48
2021/03/20 00:43:24;;;;;;;4.53;1.63;;;2.10;70.40;;;;;;5089767;28;20381;-48
2021/03/20 00:45:50;;;;;;;3.73;1.40;;;2.10;70.50;;;;;;5088764;28;20412;-49
2021/03/20 00:48:22;;;;;;;7.05;1.60;;;2.10;70.00;;;;;;5090134;28;20857;-49
2021/03/20 00:50:48;;;;;;;5.10;1.60;;;2.10;69.60;;;;;;5089779;28;20778;-48
2021/03/20 00:53:14;;;;;;;4.10;1.45;;;2.10;70.40;;;;;;5090142;28;20373;-50
2021/03/20 00:55:41;;;;;;;6.80;1.50;;;2.10;69.90;;;;;;5090106;28;20389;-50
2021/03/20 00:58:21;;;;;;;4.15;1.40;;;2.10;69.60;;;;;;5089417;28;20973;-48
2021/03/20 01:00:47;;;;;;;7.32;1.75;;;2.10;69.70;;;;;;5071333;28;20384;-48
2021/03/20 01:03:14;;;;;;;5.10;1.50;;;2.10;70.10;;;;;;5090476;28;20738;-48
2021/03/20 01:05:40;;;;;;;5.03;1.83;;;2.20;71.00;;;;;;5090001;28;20907;-49
2021/03/20 01:08:07;;;;;;;8.67;1.97;;;2.20;69.90;;;;;;5089974;28;20385;-49
2021/03/20 01:10:33;;;;;;;6.70;1.63;;;2.20;69.50;;;;;;5089388;28;20370;-48
2021/03/20 01:12:59;;;;;;;5.53;1.55;;;2.30;69.90;;;;;;5089403;28;20399;-49
2021/03/20 01:15:25;;;;;;;4.28;1.77;;;2.30;70.30;;;;;;5088023;28;20400;-49
2021/03/20 01:17:51;;;;;;;7.80;1.75;;;2.30;69.60;;;;;;5087894;28;20752;-48
2021/03/20 01:20:17;;;;;;;7.53;1.80;;;2.30;70.80;;;;;;5089504;28;20395;-48
2021/03/20 01:22:44;;;;;;;3.63;1.70;;;2.30;71.20;;;;;;5088836;28;20392;-48
2021/03/20 01:25:10;;;;;;;6.03;1.80;;;2.30;71.20;;;;;;5089720;28;20416;-50
2021/03/20 01:27:36;;;;;;;5.32;1.70;;;2.40;70.80;;;;;;5071422;28;20427;-48
2021/03/20 01:30:07;;;;;;;6.07;1.83;;;2.40;70.60;;;;;;5089735;28;20738;-49
2021/03/20 01:32:34;;;;;;;6.90;1.83;;;2.40;71.70;;;;;;5089152;28;20381;-49
2021/03/20 01:35:00;;;;;;;9.83;1.87;;;2.40;71.10;;;;;;5090016;28;20392;-48
2021/03/20 01:37:26;;;;;;;9.43;2.10;;;2.40;71.90;;;;;;5071603;28;20477;-47
2021/03/20 01:39:52;;;;;;;6.95;1.98;;;2.40;71.90;;;;;;5089657;28;20399;-50
2021/03/20 01:42:18;;;;;;;4.75;1.75;;;2.40;72.50;;;;;;5091970;28;20383;-49
2021/03/20 01:45:08;;;;;;;6.40;1.90;;;2.50;72.20;;;;;;5074471;28;20391;-52
2021/03/20 01:47:36;;;;;;;5.67;1.57;;;2.50;72.00;;;;;;5076094;28;20384;-52
2021/03/20 01:50:03;;;;;;;6.20;1.60;;;2.50;72.70;;;;;;5059332;28;20748;-49
2021/03/20 01:52:30;;;;;;;7.53;1.70;;;2.50;73.30;;;;;;5057391;28;20388;-49
2021/03/20 01:55:09;;;;;;;5.57;1.60;;;2.50;73.70;;;;;;5075234;28;20399;-50
2021/03/20 01:57:41;;;;;;;4.93;1.60;;;2.50;73.30;;;;;;5092022;28;20412;-48
2021/03/20 02:00:31;;;;;;;5.95;1.58;;;2.50;74.10;;;;;;5093344;28;20727;-50
2021/03/20 02:02:58;;;;;;;6.17;1.30;;;2.60;74.10;;;;;;5068581;28;20392;-52
2021/03/20 02:05:26;;;;;;;5.93;1.35;;;2.60;74.60;;;;;;5058488;28;20407;-48
2021/03/20 02:07:53;;;;;;;4.70;1.45;;;2.60;75.00;;;;;;5092787;28;20776;-49
2021/03/20 02:10:20;;;;;;;7.70;1.48;;;2.70;75.00;;;;;;5058025;28;20764;-49
2021/03/20 02:12:48;;;;;;;4.72;1.50;;;2.70;75.60;;;;;;5074229;28;20369;-49
2021/03/20 02:15:26;;;;;;;6.70;1.65;;;2.70;75.60;;;;;;5073346;28;20738;-50
2021/03/20 02:18:21;;;;;;;6.32;1.50;;;2.70;76.90;;;;;;5073428;28;20417;-50
2021/03/20 02:21:11;;;;;;;8.32;1.60;;;2.70;77.30;;;;;;5076377;28;20740;-48
2021/03/20 02:24:11;;;;;;;8.77;1.90;;;2.80;77.50;;;;;;5073687;28;20389;-50
2021/03/20 02:27:04;;;;;;;8.40;1.60;;;2.80;77.30;;;;;;5092210;28;20896;-48
2021/03/20 02:29:39;;;;;;;10.52;1.60;;;2.80;77.60;;;;;;5092616;28;20393;-48
2021/03/20 02:32:39;;;;;;;8.77;1.60;;;2.80;78.50;;;;;;5073937;28;20744;-49
2021/03/20 02:35:30;;;;;;;8.10;1.55;;;2.80;78.80;;;;;;5090901;28;20392;-51
2021/03/20 02:38:20;;;;;;;5.45;1.77;;;2.80;78.80;;;;;;5091797;28;20388;-50
2021/03/20 02:40:55;;;;;;;6.88;1.77;;;2.90;80.00;;;;;;5073435;28;20880;-48
2021/03/20 02:43:24;;;;;;;7.07;1.58;;;2.90;80.50;;;;;;5092952;28;20404;-50
2021/03/20 02:46:04;;;;;;;7.18;1.77;;;2.90;81.50;;;;;;5090744;28;20404;-49
2021/03/20 02:48:49;;;;;;;14.18;2.67;;;2.90;82.20;;;;;;5091543;28;20391;-51
2021/03/20 02:51:45;;;;;;;8.77;2.40;;;2.90;82.20;;;;;;5071456;28;20392;-50
2021/03/20 02:54:30;;;;;;;11.38;2.30;;;2.90;83.50;;;;;;5073189;28;20907;-49
2021/03/20 02:57:04;;;;;;;12.02;2.20;;;2.90;83.80;;;;;;5091701;28;20393;-49
2021/03/20 02:59:33;;;;;;;7.45;1.98;;;2.90;84.70;;;;;;5074289;28;20380;-50
2021/03/20 03:02:03;;;;;;;10.50;2.25;;;3.00;84.70;;;;;;5057669;28;20376;-49
2021/03/20 03:04:31;;;;;;;8.85;2.35;;;3.00;84.60;;;;;;5069925;28;20389;-48
2021/03/20 03:07:07;;;;;;;12.60;2.55;;;3.00;85.20;;;;;;5057366;28;20919;-47
2021/03/20 03:09:36;;;;;;;10.50;2.35;;;3.00;85.40;;;;;;5073176;28;20391;-47
2021/03/20 03:12:13;;;;;;;13.60;3.00;;;3.00;85.80;;;;;;5071073;28;20460;-47
2021/03/20 03:14:59;;;;;;;10.32;2.55;;;3.00;86.50;;;;;;5054872;28;20384;-46
2021/03/20 03:17:25;;;;;;;7.93;2.40;;;3.00;86.80;;;;;;5089389;28;20891;-47
2021/03/20 03:19:54;;;;;;;13.73;2.93;;;3.00;86.70;;;;;;5073470;28;20380;-52
2021/03/20 03:22:24;;;;;;;14.02;3.65;;;3.00;87.90;;;;;;5091748;28;20384;-47
2021/03/20 03:24:56;;;;;;;11.43;2.70;;;3.00;87.80;;;;;;5073678;28;20764;-48
2021/03/20 03:27:22;;;;;;;15.40;2.58;;;3.00;87.60;;;;;;5073696;28;20409;-48
2021/03/20 03:29:48;;;;;;;13.43;2.78;;;3.00;88.70;;;;;;5072946;28;20396;-48
2021/03/20 03:32:25;;;;;;;14.05;2.80;;;3.00;88.30;;;;;;5090720;28;20384;-51
2021/03/20 03:34:56;;;;;;;13.82;3.03;;;3.00;88.90;;;;;;5073574;28;20380;-47
2021/03/20 03:38:00;;;;;;;14.00;2.80;;;3.00;89.70;;;;;;5091662;28;20396;-51
2021/03/20 03:40:43;;;;;;;14.10;2.78;;;3.00;89.10;;;;;;5089641;28;20380;-50
2021/03/20 03:43:10;;;;;;;12.35;2.80;;;3.00;89.80;;;;;;5072431;28;20397;-50
2021/03/20 03:45:36;;;;;;;10.27;2.60;;;3.00;90.10;;;;;;5071783;28;20423;-51
2021/03/20 03:48:04;;;;;;;10.70;2.65;;;3.00;90.20;;;;;;5089776;28;20385;-50
2021/03/20 03:50:33;;;;;;;13.10;2.78;;;3.00;90.40;;;;;;5073427;28;20388;-47
2021/03/20 03:53:04;;;;;;;9.80;2.78;;;3.00;90.10;;;;;;5072923;28;20389;-48
2021/03/20 03:55:30;;;;;;;11.52;2.90;;;3.00;90.40;;;;;;5073775;28;20403;-49
2021/03/20 03:58:08;;;;;;;9.88;2.80;;;3.00;90.60;;;;;;5089154;28;20400;-48
2021/03/20 04:00:45;;;;;;;11.60;2.83;;;3.10;90.50;;;;;;5090812;28;20381;-47
2021/03/20 04:03:35;;;;;;;11.67;2.87;;;3.00;90.70;;;;;;5071861;28;20408;-51
2021/03/20 04:06:06;;;;;;;12.45;2.90;;;3.00;91.10;;;;;;5090130;28;20404;-47
2021/03/20 04:08:37;;;;;;;10.90;3.30;;;3.00;90.90;;;;;;5072154;28;20376;-47
2021/03/20 04:11:24;;;;;;;12.90;3.10;;;3.00;91.40;;;;;;5090755;28;20407;-48
2021/03/20 04:14:25;;;;;;;12.25;3.33;;;3.00;91.50;;;;;;5072479;28;20380;-49
2021/03/20 04:17:20;;;;;;;13.02;2.90;;;3.00;91.60;;;;;;5066084;28;20401;-48
2021/03/20 04:20:15;;;;;;;11.23;3.00;;;3.10;92.00;;;;;;5068888;28;20399;-50
2021/03/20 04:22:44;;;;;;;9.83;3.53;;;3.00;92.00;;;;;;5072386;28;20391;-48
2021/03/20 04:25:23;;;;;;;14.30;3.77;;;3.00;92.50;;;;;;5089416;28;20383;-47
2021/03/20 04:27:55;;;;;;;16.20;3.33;;;3.10;92.70;;;;;;5056558;28;20400;-47
2021/03/20 04:30:23;;;;;;;11.82;2.83;;;3.10;93.20;;;;;;5054658;28;20773;-49
2021/03/20 04:33:01;;;;;;;11.23;3.05;;;3.10;93.10;;;;;;5071690;28;20895;-48
2021/03/20 04:35:35;;;;;;;13.43;3.53;;;3.10;93.60;;;;;;5057252;28;20891;-49
2021/03/20 04:38:02;;;;;;;16.47;3.80;;;3.10;93.70;;;;;;5038364;28;20403;-50
2021/03/20 04:40:46;;;;;;;10.73;3.50;;;3.10;94.00;;;;;;5071823;28;20403;-49
2021/03/20 04:43:14;;;;;;;16.20;3.30;;;3.10;94.20;;;;;;5072449;28;20381;-50
2021/03/20 04:45:48;;;;;;;21.05;3.75;;;3.20;94.10;;;;;;5071529;28;20388;-48
2021/03/20 04:48:27;;;;;;;11.27;3.27;;;3.20;94.30;;;;;;5073091;28;20380;-53
2021/03/20 04:51:14;;;;;;;14.10;3.72;;;3.20;94.00;;;;;;5089857;28;20756;-50
2021/03/20 04:53:40;;;;;;;12.40;3.70;;;3.20;94.20;;;;;;5055637;28;20385;-49
2021/03/20 04:56:08;;;;;;;15.15;3.88;;;3.20;94.70;;;;;;5071378;28;20388;-51
2021/03/20 04:58:43;;;;;;;13.20;3.95;;;3.20;94.80;;;;;;5090556;28;20388;-52
2021/03/20 05:01:38;;;;;;;16.70;3.75;;;3.20;94.90;;;;;;5069777;28;20394;-49
2021/03/20 05:04:09;;;;;;;14.05;3.28;;;3.20;95.10;;;;;;5088083;28;20888;-48
2021/03/20 05:06:35;;;;;;;14.98;3.60;;;3.30;95.20;;;;;;5087367;28;20412;-48
2021/03/20 05:09:03;;;;;;;12.45;3.58;;;3.40;95.30;;;;;;5070119;28;20384;-50
2021/03/20 05:11:41;;;;;;;13.75;3.70;;;3.30;95.30;;;;;;5070435;28;20772;-51
2021/03/20 05:14:30;;;;;;;18.98;4.25;;;3.30;95.70;;;;;;5069260;28;21221;-49
2021/03/20 05:16:58;;;;;;;15.38;3.75;;;3.30;95.80;;;;;;5040225;28;20462;-50
2021/03/20 05:19:26;;;;;;;11.95;3.60;;;3.30;96.10;;;;;;5040629;28;20391;-50
2021/03/20 05:21:54;;;;;;;19.20;4.07;;;3.30;96.10;;;;;;5074322;28;20380;-52
2021/03/20 05:24:35;;;;;;;14.27;3.85;;;3.30;96.70;;;;;;5055525;28;20458;-49
2021/03/20 05:27:03;;;;;;;11.00;3.50;;;3.30;97.00;;;;;;5092326;28;20419;-53
2021/03/20 05:29:29;;;;;;;20.40;3.90;;;3.30;96.90;;;;;;5091853;28;20753;-50
2021/03/20 05:31:56;;;;;;;16.70;3.90;;;3.40;97.20;;;;;;5091852;28;20389;-50
2021/03/20 05:34:32;;;;;;;13.05;3.85;;;3.40;97.10;;;;;;5074315;28;20380;-50
2021/03/20 05:36:58;;;;;;;11.93;4.20;;;3.40;97.20;;;;;;5091722;28;20395;-52
2021/03/20 05:39:25;;;;;;;19.48;4.60;;;3.40;97.40;;;;;;5091586;28;20391;-52
2021/03/20 05:42:22;;;;;;;17.67;4.05;;;3.40;97.40;;;;;;5090476;28;20400;-51
2021/03/20 05:45:13;;;;;;;14.15;3.78;;;3.40;97.80;;;;;;5071637;28;20396;-49
2021/03/20 05:47:59;;;;;;;16.40;4.30;;;3.40;97.80;;;;;;5091261;28;20404;-49
2021/03/20 05:50:44;;;;;;;16.48;4.70;;;3.40;97.70;;;;;;5073947;28;22027;-47
2021/03/20 05:53:16;;;;;;;16.33;4.70;;;3.40;98.10;;;;;;5090914;28;20821;-48
2021/03/20 05:55:48;;;;;;;16.75;4.40;;;3.40;98.00;;;;;;5090961;28;20901;-51
2021/03/20 05:58:51;;;;;;;13.88;4.05;;;3.40;98.30;;;;;;5091835;28;20760;-50
2021/03/20 06:01:24;;;;;;;16.95;4.47;;;3.50;98.70;;;;;;5090213;28;20396;-50
2021/03/20 06:04:23;;;;;;;12.77;4.45;;;3.50;98.60;;;;;;5090316;28;20403;-54
2021/03/20 06:07:37;;;;;;;14.07;4.13;;;3.50;98.60;;;;;;5090223;28;20407;-50
2021/03/20 06:10:03;;;;;;;16.48;4.65;;;3.50;98.70;;;;;;5028430;28;20393;-51
2021/03/20 06:12:41;;;;;;;16.57;4.70;;;3.50;98.70;;;;;;5082037;28;20868;-50
2021/03/20 06:15:08;;;;;;;11.48;4.20;;;3.60;99.10;;;;;;5089217;28;20448;-51
2021/03/20 06:17:40;;;;;;;13.20;4.30;;;3.60;99.10;;;;;;5071473;28;20391;-52
2021/03/20 06:20:12;;;;;;;13.73;4.60;;;3.60;99.40;;;;;;5090008;28;20395;-50
2021/03/20 06:22:46;;;;;;;18.27;4.30;;;3.60;99.30;;;;;;5055187;28;20407;-51
2021/03/20 06:25:43;;;;;;;14.55;4.22;;;3.60;99.40;;;;;;5072462;28;20395;-53
2021/03/20 06:28:10;;;;;;;17.33;4.50;;;3.60;99.40;;;;;;5089902;28;20431;-51
2021/03/20 06:30:38;;;;;;;14.80;4.45;;;3.70;99.60;;;;;;5062547;28;20411;-51
2021/03/20 06:33:21;;;;;;;19.95;4.68;;;3.70;99.70;;;;;;5070810;28;20399;-53
2021/03/20 06:35:49;;;;;;;16.75;4.72;;;3.70;99.60;;;;;;5072751;28;20388;-51
2021/03/20 06:38:27;;;;;;;14.30;4.97;;;3.70;99.70;;;;;;5072338;28;20365;-50
2021/03/20 06:41:15;;;;;;;16.85;4.45;;;3.80;99.70;;;;;;5072298;28;20393;-51
2021/03/20 06:43:54;;;;;;;18.80;4.78;;;3.80;99.70;;;;;;5023118;28;20381;-53
2021/03/20 06:46:27;;;;;;;16.48;5.35;;;3.80;99.90;;;;;;5073198;28;20397;-49
2021/03/20 06:48:55;;;;;;;16.27;5.10;;;3.90;99.90;;;;;;5092127;28;20372;-51
2021/03/20 06:51:21;;;;;;;15.32;5.03;;;3.90;99.90;;;;;;5071839;28;20377;-52
2021/03/20 06:53:55;;;;;;;18.02;5.20;;;3.90;99.90;;;;;;5090711;28;20423;-52
2021/03/20 06:56:21;;;;;;;15.32;5.28;;;3.90;99.90;;;;;;5059185;28;20382;-53
2021/03/20 06:58:47;;;;;;;17.17;5.20;;;3.90;99.90;;;;;;5092882;28;20392;-51
2021/03/20 07:01:29;;;;;;;16.55;5.43;;;3.90;99.90;;;;;;5073144;28;20414;-50
2021/03/20 07:04:32;;;;;;;15.75;5.00;;;4.00;99.90;;;;;;5071746;28;20399;-50
2021/03/20 07:07:18;;;;;;;14.80;5.07;;;4.00;99.90;;;;;;5090572;28;20772;-52
2021/03/20 07:09:44;;;;;;;21.00;5.57;;;4.00;99.90;;;;;;5067365;28;20384;-53
2021/03/20 07:12:11;;;;;;;16.03;5.10;;;4.00;99.90;;;;;;5056018;28;20383;-52
2021/03/20 07:14:44;;;;;;;19.77;5.87;;;3.90;99.90;;;;;;5089330;28;20474;-51
2021/03/20 07:17:35;;;;;;;15.43;5.07;;;4.00;99.90;;;;;;5090196;28;20876;-51
2021/03/20 07:20:24;;;;;;;20.48;5.30;;;4.00;99.90;;;;;;5088461;28;20399;-52
2021/03/20 07:23:04;;;;;;;19.40;5.40;;;4.00;99.90;;;;;;5071366;28;20396;-51
2021/03/20 07:25:48;;;;;;;17.80;5.57;;;4.00;99.90;;;;;;5069462;28;20741;-49
2021/03/20 07:28:24;;;;;;;17.77;5.65;;;4.00;99.90;;;;;;5072608;28;20753;-50
2021/03/20 07:30:59;;;;;;;21.33;6.63;;;4.00;99.90;;;;;;5068627;28;20410;-49
2021/03/20 07:33:39;;;;;;;22.38;6.38;;;4.00;99.90;;;;;;5070032;28;20378;-51
2021/03/20 07:36:31;;;;;;;18.70;6.07;;;4.00;99.90;;;;;;5068068;28;20405;-51
2021/03/20 07:39:14;;;;;;;17.65;6.72;;;4.00;99.90;;;;;;5069233;28;20390;-51
2021/03/20 07:41:45;;;;;;;18.75;6.68;;;4.00;99.90;;;;;;5069380;28;20385;-53
2021/03/20 07:44:11;;;;;;;18.08;6.85;;;4.00;99.90;;;;;;5070025;28;20390;-52
2021/03/20 07:46:37;;;;;;;23.77;6.60;;;4.00;99.90;;;;;;5068235;28;20422;-50
2021/03/20 07:49:06;;;;;;;18.30;6.05;;;4.10;99.90;;;;;;5068158;28;20405;-51
2021/03/20 07:52:03;;;;;;;21.58;6.60;;;4.10;99.90;;;;;;5051933;28;20887;-50
2021/03/20 07:54:31;;;;;;;20.52;6.80;;;4.00;99.90;;;;;;5067628;28;20373;-50
2021/03/20 07:57:16;;;;;;;19.42;6.88;;;4.00;99.90;;;;;;5068545;28;20394;-51
2021/03/20 07:59:50;;;;;;;21.95;7.28;;;4.00;99.90;;;;;;5051886;28;20416;-51
2021/03/20 08:02:27;;;;;;;18.95;6.28;;;4.00;99.90;;;;;;5059802;28;20850;-50
2021/03/20 08:04:59;;;;;;;18.88;6.80;;;4.10;99.90;;;;;;5068367;28;20756;-51
2021/03/20 08:07:38;;;;;;;17.75;6.40;;;4.10;99.90;;;;;;5067891;28;20402;-51
2021/03/20 08:10:07;;;;;;;19.00;6.20;;;4.20;99.90;;;;;;5069457;28;20735;-49
2021/03/20 08:12:33;;;;;;;26.38;6.60;;;4.10;99.90;;;;;;5069117;28;20393;-49
2021/03/20 08:15:01;;;;;;;29.92;7.75;;;4.20;99.90;;;;;;5068398;28;20409;-51
2021/03/20 08:17:27;;;;;;;17.80;6.70;;;4.20;99.90;;;;;;5052771;28;20405;-49
2021/03/20 08:19:53;;;;;;;25.60;7.05;;;4.20;99.90;;;;;;5070406;28;20382;-49
2021/03/20 08:22:28;;;;;;;19.77;6.90;;;4.20;99.90;;;;;;5070565;28;20405;-51
2021/03/20 08:25:08;;;;;;;19.48;6.53;;;4.20;99.90;;;;;;5069503;28;20382;-48
2021/03/20 08:27:59;;;;;;;20.93;6.90;;;4.30;99.90;;;;;;5074158;28;20410;-49
2021/03/20 08:30:31;;;;;;;18.25;6.80;;;4.40;99.90;;;;;;5080426;28;20407;-49
2021/03/20 08:33:17;;;;;;;18.65;6.47;;;4.40;99.90;;;;;;5090916;28;20399;-50
2021/03/20 08:35:56;;;;;;;21.30;7.13;;;4.40;99.90;;;;;;5072028;28;20454;-54
2021/03/20 08:39:12;;;;;;;21.02;7.10;;;4.40;99.90;;;;;;5090081;28;20389;-50
2021/03/20 08:41:41;;;;;;;17.98;6.60;;;4.40;99.90;;;;;;5030745;28;20920;-50
2021/03/20 08:44:36;;;;;;;26.25;7.05;;;4.40;99.90;;;;;;5070841;28;20408;-49
2021/03/20 08:47:11;;;;;;;30.23;7.18;;;4.40;99.90;;;;;;5070395;28;20551;-49
2021/03/20 08:50:09;;;;;;;20.83;6.60;;;4.50;99.90;;;;;;5085844;28;20867;-50
2021/03/20 08:52:40;;;;;;;23.17;6.60;;;4.60;99.90;;;;;;5063821;28;20404;-49
2021/03/20 08:55:26;;;;;;;25.90;7.63;;;4.60;99.90;;;;;;5071382;28;20714;-52
2021/03/20 08:57:59;;;;;;;34.97;7.83;;;4.60;99.90;;;;;;5088593;28;20404;-50
2021/03/20 09:00:31;;;;;;;24.55;7.90;;;4.60;99.90;;;;;;5057047;28;20871;-50
2021/03/20 09:03:00;;;;;;;29.85;7.47;;;4.60;99.90;;;;;;5070543;28;20400;-62
2021/03/20 09:05:29;;;;;;;29.17;7.37;;;4.60;99.90;;;;;;5072725;28;20383;-54
2021/03/20 09:08:20;;;;;;;28.42;8.27;;;4.60;99.90;;;;;;5090718;28;20397;-54
2021/03/20 09:11:14;;;;;;;27.35;7.65;;;4.70;99.90;;;;;;5072521;28;20372;-51
2021/03/20 09:13:45;;;;;;;28.67;7.72;;;4.90;99.90;;;;;;5090407;28;20377;-54
2021/03/20 09:16:29;;;;;;;34.38;8.52;;;4.90;99.90;;;;;;5052034;28;20382;-53
2021/03/20 09:18:55;;;;;;;33.22;8.35;;;4.80;99.90;;;;;;5056610;28;20376;-51
2021/03/20 09:21:22;;;;;;;26.67;8.52;;;5.00;99.90;;;;;;5078083;28;20721;-53
2021/03/20 09:23:49;;;;;;;26.88;8.30;;;4.90;99.90;;;;;;5068566;28;20392;-53
2021/03/20 09:26:42;;;;;;;40.40;8.93;;;4.80;99.90;;;;;;5070672;28;20373;-53
2021/03/20 09:29:19;;;;;;;41.10;9.87;;;4.80;99.90;;;;;;5054448;28;20411;-52
2021/03/20 09:31:57;;;;;;;33.78;9.93;;;4.90;99.90;;;;;;5090262;28;20396;-53
2021/03/20 09:34:30;;;;;;;37.33;9.52;;;5.00;99.90;;;;;;5052219;28;20447;-51
2021/03/20 09:36:56;;;;;;;38.78;10.32;;;4.90;99.90;;;;;;5087619;28;20411;-49
2021/03/20 09:39:41;;;;;;;35.30;9.63;;;4.90;99.90;;;;;;5069354;28;20385;-55
2021/03/20 09:42:26;;;;;;;29.20;8.77;;;4.90;99.90;;;;;;5087668;28;20384;-53
2021/03/20 09:44:57;;;;;;;35.63;9.27;;;5.00;99.90;;;;;;5087323;28;20388;-51
2021/03/20 09:47:35;;;;;;;42.77;9.30;;;5.00;99.90;;;;;;5089937;28;20404;-52
2021/03/20 09:50:06;;;;;;;37.83;8.75;;;5.00;99.90;;;;;;5085449;28;20741;-53
2021/03/20 09:52:34;;;;;;;36.63;9.23;;;5.00;99.90;;;;;;5090269;28;20384;-52
2021/03/20 09:55:46;;;;;;;31.27;8.85;;;5.00;99.90;;;;;;5067773;28;20474;-54
2021/03/20 09:58:21;;;;;;;43.20;9.57;;;5.00;99.90;;;;;;5085136;28;20400;-52
2021/03/20 10:00:48;;;;;;;42.83;9.35;;;5.00;99.90;;;;;;5090558;28;20372;-53
2021/03/20 10:03:40;;;;;;;41.30;10.38;;;5.00;99.90;;;;;;5093089;28;20392;-55
2021/03/20 10:06:12;;;;;;;41.15;9.88;;;5.10;99.90;;;;;;5076254;28;20404;-53
2021/03/20 10:08:43;;;;;;;39.60;10.20;;;5.10;99.90;;;;;;5094441;28;20396;-53
2021/03/20 10:11:29;;;;;;;44.15;10.85;;;5.00;99.90;;;;;;5075536;28;20393;-50
2021/03/20 10:13:55;;;;;;;40.72;10.63;;;5.00;99.90;;;;;;5092594;28;20729;-51
2021/03/20 10:16:23;;;;;;;39.33;10.43;;;5.10;99.90;;;;;;5074796;28;20463;-53
2021/03/20 10:19:18;;;;;;;41.30;10.82;;;5.10;99.90;;;;;;5076190;28;20905;-52
2021/03/20 10:21:44;;;;;;;38.42;10.57;;;5.10;99.90;;;;;;5087770;28;20391;-49
2021/03/20 10:24:21;;;;;;;30.80;9.90;;;5.10;99.90;;;;;;5058970;28;20380;-49
2021/03/20 10:26:54;;;;;;;46.00;11.50;;;5.00;99.90;;;;;;5076744;28;20404;-53
2021/03/20 10:29:20;;;;;;;36.42;11.18;;;5.10;99.90;;;;;;5059329;28;20388;-52
2021/03/20 10:31:50;;;;;;;34.58;10.57;;;5.20;99.90;;;;;;5093622;28;20392;-50
2021/03/20 10:34:25;;;;;;;37.15;10.85;;;5.20;99.90;;;;;;5093499;28;20373;-54
2021/03/20 10:37:07;;;;;;;36.37;10.87;;;5.20;99.90;;;;;;5093691;28;20387;-52
2021/03/20 10:39:44;;;;;;;39.17;11.07;;;5.20;99.90;;;;;;5093670;28;20872;-54
2021/03/20 10:42:18;;;;;;;41.13;10.85;;;5.30;99.90;;;;;;5074794;28;20388;-52
2021/03/20 10:44:45;;;;;;;35.95;11.43;;;5.20;99.90;;;;;;5092215;28;20373;-55
2021/03/20 10:47:11;;;;;;;39.20;11.70;;;5.30;99.90;;;;;;5092671;28;20404;-54
2021/03/20 10:49:40;;;;;;;35.15;10.90;;;5.20;99.90;;;;;;5091691;28;20408;-53
2021/03/20 10:52:20;;;;;;;35.78;10.50;;;5.20;99.90;;;;;;5074599;28;20385;-53
2021/03/20 10:54:51;;;;;;;33.43;11.17;;;5.20;99.90;;;;;;5075241;28;20384;-54
2021/03/20 10:57:20;;;;;;;40.50;11.07;;;5.20;99.90;;;;;;5093069;28;20381;-53
2021/03/20 10:59:47;;;;;;;36.17;11.87;;;5.30;99.90;;;;;;5075364;28;20392;-55
2021/03/20 11:02:30;;;;;;;40.15;11.20;;;5.30;99.90;;;;;;5074831;28;20380;-52
2021/03/20 11:05:22;;;;;;;29.15;10.32;;;5.30;99.90;;;;;;5093346;28;20385;-52
2021/03/20 11:07:56;;;;;;;34.08;10.80;;;5.30;99.90;;;;;;5085461;28;20411;-54
2021/03/20 11:10:37;;;;;;;35.37;11.57;;;5.30;99.90;;;;;;5092413;28;20749;-54
2021/03/20 11:13:05;;;;;;;34.80;10.50;;;5.30;99.90;;;;;;5092514;28;20395;-54
2021/03/20 11:15:33;;;;;;;36.20;10.15;;;5.40;99.90;;;;;;5047700;28;20685;-52
2021/03/20 11:18:00;;;;;;;35.58;10.07;;;5.40;99.90;;;;;;5092272;28;20742;-54
2021/03/20 11:20:36;;;;;;;25.57;9.17;;;5.40;99.90;;;;;;5067746;28;20376;-54
2021/03/20 11:23:03;;;;;;;27.40;8.90;;;5.50;99.90;;;;;;5092261;28;20407;-54
2021/03/20 11:25:40;;;;;;;24.70;8.52;;;5.50;99.90;;;;;;5092227;28;20736;-52
2021/03/20 11:28:13;;;;;;;27.15;8.25;;;5.50;99.90;;;;;;5089209;28;20768;-52
2021/03/20 11:30:49;;;;;;;27.13;8.60;;;5.50;99.90;;;;;;5058086;28;20410;-51
2021/03/20 11:33:18;;;;;;;26.10;8.13;;;5.60;99.90;;;;;;5074163;28;20388;-52
2021/03/20 11:35:46;;;;;;;24.97;7.57;;;5.60;99.90;;;;;;5062742;28;20389;-51
2021/03/20 11:38:14;;;;;;;23.33;7.97;;;5.60;99.90;;;;;;5070178;28;20391;-51
2021/03/20 11:40:41;;;;;;;29.90;7.35;;;5.60;99.90;;;;;;5073667;28;20392;-52
2021/03/20 11:43:28;;;;;;;19.83;7.20;;;5.70;99.90;;;;;;5073999;28;20384;-53
2021/03/20 11:46:16;;;;;;;20.83;7.40;;;5.70;99.90;;;;;;5074379;28;20757;-49
2021/03/20 11:48:49;;;;;;;20.95;6.72;;;5.80;99.90;;;;;;5073145;28;20405;-54
2021/03/20 11:51:20;;;;;;;23.43;7.50;;;5.90;99.90;;;;;;5070734;28;20872;-54
2021/03/20 11:53:48;;;;;;;19.48;7.32;;;5.80;99.90;;;;;;5072018;28;20416;-54
2021/03/20 11:56:15;;;;;;;19.15;6.95;;;5.80;99.90;;;;;;5073617;28;20369;-54
2021/03/20 11:58:51;;;;;;;21.77;7.63;;;5.70;99.90;;;;;;5073699;28;20392;-51
2021/03/20 12:01:24;;;;;;;23.17;7.20;;;5.80;99.90;;;;;;5073756;28;20377;-53
2021/03/20 12:03:50;;;;;;;20.80;6.95;;;5.90;99.90;;;;;;5091875;28;20392;-53
2021/03/20 12:06:17;;;;;;;19.70;6.68;;;5.90;99.90;;;;;;5065191;28;20370;-53
2021/03/20 12:08:47;;;;;;;17.02;7.40;;;5.80;99.90;;;;;;5091792;28;20400;-54
2021/03/20 12:11:15;;;;;;;22.02;7.18;;;5.80;99.90;;;;;;5091968;28;20383;-51
2021/03/20 12:13:47;;;;;;;19.35;8.30;;;5.80;99.90;;;;;;5091022;28;20399;-50
2021/03/20 12:16:33;;;;;;;17.65;7.10;;;5.80;99.90;;;;;;5090435;28;20453;-51
2021/03/20 12:19:04;;;;;;;20.40;7.78;;;5.80;99.90;;;;;;5072028;28;20384;-50
2021/03/20 12:21:30;;;;;;;22.08;8.10;;;5.80;99.90;;;;;;5088350;28;20921;-51
2021/03/20 12:23:58;;;;;;;21.77;7.70;;;5.90;99.90;;;;;;5085063;28;20399;-52
2021/03/20 12:26:32;;;;;;;19.52;7.70;;;5.90;99.90;;;;;;5056901;28;20395;-53
2021/03/20 12:29:25;;;;;;;21.52;7.75;;;6.00;99.90;;;;;;5091117;28;20780;-54
2021/03/20 12:31:51;;;;;;;18.92;7.32;;;6.00;99.90;;;;;;5071472;28;20384;-50
2021/03/20 12:34:17;;;;;;;18.20;6.93;;;5.90;99.90;;;;;;5046549;28;20397;-53
2021/03/20 12:36:48;;;;;;;18.80;7.15;;;6.00;99.90;;;;;;5090268;28;20396;-51
2021/03/20 12:39:22;;;;;;;18.55;7.18;;;6.00;99.90;;;;;;5072748;28;20385;-51
2021/03/20 12:41:49;;;;;;;19.77;6.90;;;5.90;99.90;;;;;;5091094;28;20393;-53
2021/03/20 12:44:32;;;;;;;21.00;8.02;;;5.80;99.90;;;;;;5090983;28;20416;-50
2021/03/20 12:47:00;;;;;;;20.93;7.50;;;5.80;99.90;;;;;;5071919;28;20393;-51
2021/03/20 12:49:31;;;;;;;18.25;7.28;;;5.80;99.90;;;;;;5091065;28;20388;-51
2021/03/20 12:52:20;;;;;;;16.85;7.50;;;5.90;99.90;;;;;;5083592;28;20384;-54
2021/03/20 12:54:48;;;;;;;23.70;7.10;;;5.80;99.90;;;;;;5073826;28;20392;-51
2021/03/20 12:57:19;;;;;;;20.97;7.80;;;5.80;99.90;;;;;;5090615;28;20399;-51
2021/03/20 12:59:45;;;;;;;17.95;6.80;;;5.80;99.90;;;;;;5090988;28;20412;-52
2021/03/20 13:02:12;;;;;;;20.45;7.35;;;5.90;99.90;;;;;;5089892;28;20385;-51
2021/03/20 13:04:38;;;;;;;22.83;7.10;;;5.90;99.90;;;;;;5090962;28;20396;-53
2021/03/20 13:07:06;;;;;;;20.75;7.35;;;5.80;99.90;;;;;;5071397;28;20396;-52
2021/03/20 13:09:32;;;;;;;22.80;7.68;;;5.80;99.90;;;;;;5089366;28;20876;-50
2021/03/20 13:11:59;;;;;;;21.67;7.38;;;5.80;99.90;;;;;;5090799;28;20415;-57
2021/03/20 13:14:25;;;;;;;20.08;7.30;;;5.80;99.90;;;;;;5090765;28;20404;-50
2021/03/20 13:16:51;;;;;;;20.92;7.28;;;5.80;99.90;;;;;;5089816;28;20393;-53
2021/03/20 13:19:17;;;;;;;18.20;7.13;;;5.80;99.90;;;;;;5090514;28;20402;-51
2021/03/20 13:21:43;;;;;;;20.23;7.15;;;5.80;99.90;;;;;;5090180;28;20385;-52
2021/03/20 13:24:09;;;;;;;25.75;8.23;;;5.80;99.90;;;;;;5086988;28;20407;-50
2021/03/20 13:26:35;;;;;;;22.23;7.70;;;5.70;99.90;;;;;;5090830;28;20926;-51